• Join FlightAware (Why Join?)
  • Login
  • US Flag 
03:56AM EDT


 

Airport Tracker/Info


-or-


 

Live Flight TrackerFlight Track Log ✈ EJA727 ✈ 30-Aug-2013 ✈ KHPN - KBFM

Flight Track Log - Related Links

Times and Time Zones

All times are in EDT time to prevent confusion due to time zone crossing. See the EJA727 flight status page for this flight to view local times or setup timezone preferences in your user account.

Time Position Orientation Groundspeed Altitude Reporting Facility
EDT Latitude Longitude Course Direction KTS MPH feet Rate Location/Type
08:30AM 41.0500 -73.6833 246° West 187 215 1,900  Level New York TRACON
08:31AM 41.0333 -73.7333 246° West 201 231 2,900 1,980 Climbing New York TRACON
08:32AM 41.0333 -73.8167 270° West 249 287 5,900 2,220 Climbing New York TRACON
08:33AM 41.0000 -73.9000 242° Southwest 277 319 7,600 2,640 Climbing New York TRACON
08:34AM 40.9500 -74.0000 237° Southwest 296 341 11,500 3,420 Climbing New York TRACON
08:35AM 40.9167 -74.1167 249° West 326 375 14,800 1,680 Climbing New York TRACON
08:36AM 40.8667 -74.2333 240° Southwest 399 459 15,000 1,440 Climbing New York TRACON
08:38AM 40.7425 -74.5589 243° Southwest 420 483 19,900 2,040 Climbing New York Center
08:39AM 40.6900 -74.6958 243° Southwest 420 483 22,100 1,860 Climbing New York Center
08:40AM 40.6333 -74.8347 242° Southwest 426 490 23,700 1,620 Climbing New York Center
08:41AM 40.5783 -74.9761 243° Southwest 426 490 25,400 1,680 Climbing New York Center
08:42AM 40.5089 -75.1139 236° Southwest 440 506 27,100 1,680 Climbing New York Center
08:43AM 40.4247 -75.2478 230° Southwest 465 535 28,800 1,680 Climbing New York Center
08:44AM 40.3425 -75.3783 230° Southwest 471 542 30,500 1,680 Climbing New York Center
08:45AM 40.2581 -75.5117 230° Southwest 476 548 32,200 1,440 Climbing New York Center
08:46AM 40.1817 -75.6475 234° Southwest 476 548 33,400 1,200 Climbing New York Center
08:47AM 40.1111 -75.7892 237° Southwest 476 548 34,600 1,200 Climbing New York Center
08:48AM 40.0408 -75.9144 234° Southwest 476 548 35,800 1,200 Climbing New York Center
08:49AM 39.9578 -76.0492 231° Southwest 481 554 37,000 1,080 Climbing New York Center
08:50AM 39.8728 -76.1781 229° Southwest 481 554 38,000 300 Climbing New York Center
08:52AM 39.7003 -76.4492 230° Southwest 482 555 38,000  Level Washington Center
08:53AM 39.6075 -76.5828 228° Southwest 498 573 38,000  Level Washington Center
08:54AM 39.5231 -76.7161 231° Southwest 498 573 38,000  Level Washington Center
08:55AM 39.4364 -76.8436 229° Southwest 492 566 38,000  Level Washington Center
08:56AM 39.3536 -76.9711 230° Southwest 481 554 38,000  Level Washington Center
08:57AM 39.2622 -77.1114 230° Southwest 474 545 38,000  Level Washington Center
08:58AM 39.1794 -77.2331 229° Southwest 474 545 38,000  Level Washington Center
08:59AM 39.1050 -77.3436 229° Southwest 469 540 38,000  Level Washington Center
09:00AM 39.0239 -77.4672 230° Southwest 469 540 38,000  Level Washington Center
09:01AM 38.9278 -77.6089 229° Southwest 469 540 38,000  Level Washington Center
09:02AM 38.8442 -77.7344 229° Southwest 469 540 38,000  Level Washington Center
09:03AM 38.7542 -77.8678 229° Southwest 484 557 38,000  Level Washington Center
09:04AM 38.6706 -77.9875 228° Southwest 484 557 38,000  Level Washington Center
09:05AM 38.5867 -78.1122 229° Southwest 473 544 38,000  Level Washington Center
09:06AM 38.5050 -78.2342 229° Southwest 473 544 38,000  Level Washington Center
09:07AM 38.4186 -78.3608 229° Southwest 473 544 38,000  Level Washington Center
09:08AM 38.3344 -78.4822 229° Southwest 473 544 38,000  Level Washington Center
09:09AM 38.2542 -78.6061 230° Southwest 468 539 38,000  Level Washington Center
09:10AM 38.1719 -78.7269 229° Southwest 468 539 38,000  Level Washington Center
09:11AM 38.0853 -78.8472 228° Southwest 468 539 38,000  Level Washington Center
09:12AM 38.0092 -78.9572 229° Southwest 468 539 38,000  Level Washington Center
09:13AM 37.9222 -79.0797 228° Southwest 468 539 38,000  Level Washington Center
09:14AM 37.8375 -79.2019 229° Southwest 468 539 38,000  Level Washington Center
09:15AM 37.7436 -79.3317 228° Southwest 468 539 38,000  Level Washington Center
09:16AM 37.6589 -79.4428 226° Southwest 480 552 38,000  Level Washington Center
09:17AM 37.5650 -79.5742 228° Southwest 480 552 38,000  Level Washington Center
09:18AM 37.4861 -79.6853 228° Southwest 480 552 38,000  Level Washington Center
09:19AM 37.3853 -79.8211 227° Southwest 491 565 38,000  Level Washington Center
09:20AM 37.2956 -79.9414 227° Southwest 483 556 38,000  Level Washington Center
09:21AM 37.2100 -80.0564 227° Southwest 477 549 38,000  Level Washington Center
09:22AM 37.1219 -80.1739 227° Southwest 472 543 38,000  Level Washington Center
09:25AM 36.9156 -80.4017 221° Southwest 474 545 38,000  Level Atlanta Center
09:26AM 36.8058 -80.4922 213° Southwest 479 551 38,000  Level Atlanta Center
09:27AM 36.6894 -80.5853 213° Southwest 478 550 38,000  Level Atlanta Center
09:28AM 36.5794 -80.6781 214° Southwest 472 543 38,000  Level Atlanta Center
09:29AM 36.4694 -80.7678 213° Southwest 477 549 38,000  Level Atlanta Center
09:30AM 36.3633 -80.8572 214° Southwest 470 541 38,000  Level Atlanta Center
09:31AM 36.2531 -80.9467 213° Southwest 470 541 38,000  Level Atlanta Center
09:32AM 36.1547 -81.0275 214° Southwest 475 547 38,000  Level Atlanta Center
09:33AM 36.0486 -81.1161 214° Southwest 468 539 38,000 -660 Level Atlanta Center
09:34AM 35.9381 -81.2072 214° Southwest 474 545 36,700 -1,020 Descending Atlanta Center
09:35AM 35.8294 -81.2983 214° Southwest 479 551 36,000 -360 Descending Atlanta Center
09:36AM 35.7147 -81.3967 215° Southwest 492 566 36,000  Level Atlanta Center
09:37AM 35.6000 -81.4847 212° Southwest 504 580 36,000  Level Atlanta Center
09:38AM 35.4869 -81.5722 212° Southwest 485 558 36,000  Level Atlanta Center
09:39AM 35.3761 -81.6597 213° Southwest 485 558 36,000  Level Atlanta Center
09:40AM 35.2650 -81.7469 213° Southwest 485 558 36,000  Level Atlanta Center
09:41AM 35.1539 -81.8339 213° Southwest 480 552 36,000  Level Atlanta Center
09:42AM 35.0469 -81.9228 214° Southwest 470 541 36,000  Level Atlanta Center
09:43AM 34.9636 -82.0467 231° Southwest 465 535 36,000  Level Atlanta Center
09:44AM 34.8800 -82.1803 233° Southwest 465 535 36,000  Level Atlanta Center
09:45AM 34.8108 -82.2983 235° Southwest 470 541 36,000  Level Atlanta Center
09:46AM 34.7311 -82.4236 232° Southwest 475 547 36,000  Level Atlanta Center
09:47AM 34.6533 -82.5514 234° Southwest 475 547 36,000  Level Atlanta Center
09:48AM 34.5653 -82.6917 233° Southwest 475 547 36,000  Level Atlanta Center
09:49AM 34.4894 -82.8189 234° Southwest 475 547 36,000  Level Atlanta Center
09:50AM 34.4133 -82.9433 233° Southwest 470 541 36,000  Level Atlanta Center
09:51AM 34.3308 -83.0678 231° Southwest 470 541 36,000  Level Atlanta Center
09:52AM 34.2567 -83.1919 234° Southwest 465 535 36,000  Level Atlanta Center
09:53AM 34.1783 -83.3131 232° Southwest 465 535 36,000  Level Atlanta Center
09:54AM 34.1017 -83.4392 234° Southwest 465 535 36,000  Level Atlanta Center
09:55AM 34.0333 -83.5500 233° Southwest 465 535 36,000  Level Atlanta Center
09:56AM 33.9564 -83.6706 232° Southwest 465 535 36,000  Level Atlanta Center
09:57AM 33.8794 -83.7911 232° Southwest 470 541 36,000  Level Atlanta Center
09:58AM 33.8006 -83.9164 233° Southwest 470 541 36,000  Level Atlanta Center
09:59AM 33.7211 -84.0389 232° Southwest 465 535 36,000  Level Atlanta Center
10:00AM 33.6333 -84.1736 232° Southwest 465 535 36,000  Level Atlanta Center
10:01AM 33.5539 -84.2956 232° Southwest 470 541 36,000  Level Atlanta Center
10:02AM 33.4786 -84.4222 235° Southwest 470 541 36,000  Level Atlanta Center
10:03AM 33.3986 -84.5439 232° Southwest 470 541 36,000  Level Atlanta Center
10:04AM 33.3189 -84.6653 232° Southwest 470 541 36,000  Level Atlanta Center
10:05AM 33.2472 -84.7792 233° Southwest 470 541 36,000  Level Atlanta Center
10:06AM 33.1692 -84.9000 232° Southwest 465 535 36,000  Level Atlanta Center
10:07AM 33.0911 -85.0206 232° Southwest 470 541 36,000  Level Atlanta Center
10:08AM 33.0108 -85.1436 232° Southwest 475 547 36,000  Level Atlanta Center
10:09AM 32.9325 -85.2589 231° Southwest 464 534 36,000  Level Atlanta Center
10:10AM 32.8539 -85.3814 233° Southwest 469 540 36,000  Level Atlanta Center
10:11AM 32.7733 -85.5014 231° Southwest 469 540 36,000  Level Atlanta Center
10:12AM 32.6903 -85.6183 230° Southwest 469 540 36,000  Level Atlanta Center
10:13AM 32.6117 -85.7403 233° Southwest 469 540 36,000  Level Atlanta Center
10:14AM 32.5325 -85.8594 232° Southwest 469 540 36,000  Level Atlanta Center
10:15AM 32.4514 -85.9833 232° Southwest 474 545 36,000  Level Atlanta Center
10:16AM 32.3681 -86.1044 231° Southwest 474 545 36,000  Level Atlanta Center
10:17AM 32.2889 -86.2206 231° Southwest 468 539 36,000  Level Atlanta Center
10:18AM 32.1964 -86.3608 232° Southwest 473 544 36,000 -480 Level Atlanta Center
10:19AM 32.1256 -86.4644 231° Southwest 479 551 35,100 -540 Descending Atlanta Center
10:20AM 32.0419 -86.5822 230° Southwest 479 551 35,000 -240 Descending Atlanta Center
10:21AM 31.9453 -86.7042 227° Southwest 468 539 34,700 -1,080 Descending Atlanta Center
10:22AM 31.8614 -86.8192 229° Southwest 468 539 32,900 -1,800 Descending Atlanta Center
10:23AM 31.7753 -86.9411 230° Southwest 473 544 31,100 -1,860 Descending Atlanta Center
10:24AM 31.6889 -87.0578 229° Southwest 479 551 29,200 -1,800 Descending Atlanta Center
10:25AM 31.6175 -87.1628 231° Southwest 474 545 27,500 -1,860 Descending Atlanta Center
10:26AM 31.5072 -87.3036 227° Southwest 490 564 25,200 -2,100 Descending Houston Center
10:27AM 31.4147 -87.4311 230° Southwest 509 586 22,800 -2,460 Descending Houston Center
10:28AM 31.3228 -87.5564 229° Southwest 510 587 20,200 -2,160 Descending Houston Center
10:29AM 31.2244 -87.6903 229° Southwest 443 510 18,400 -2,040 Descending Houston Center
10:30AM 31.1489 -87.7928 229° Southwest 419 482 16,100 -2,280 Descending Houston Center
10:31AM 31.0761 -87.8906 229° Southwest 401 461 13,800 -2,280 Descending Houston Center
10:32AM 31.0053 -87.9836 228° Southwest 384 442 11,400 -1,800 Descending Houston Center
10:33AM 30.9408 -88.0697 229° Southwest 348 400 10,100 -1,620 Descending Houston Center
10:34AM 30.8861 -88.1422 229° Southwest 297 342 8,100 -1,920 Descending Houston Center
10:35AM 30.8214 -88.1747 203° Southwest 284 327 6,200 -2,040 Descending Houston Center
10:36AM 30.7519 -88.1086 141° Southeast 271 312 4,000 -1,620 Descending Houston Center
10:37AM 30.6964 -88.0528 139° Southeast 268 308 2,900 -1,260 Descending Houston Center
10:38AM 30.6517 -88.0058 138° Southeast 235 270 1,500 -900 Descending Houston Center
10:39AM 30.6094 -87.9961 169° South 194 223 1,100 -480 Descending Houston Center
10:40AM 30.5950 -88.0397 249° West 165 190 500 -480 Descending Houston Center
10:41AM 30.6358 -88.0717 326° Northwest 156 180 200 -300 Descending Houston Center
10:43AM 30.6268 -88.0681 295° West  Level Estimated